createdAt,value
2022-09-21T04:15:51.861Z,101044.06
2022-09-21T04:18:18.791Z,101050.16
2022-09-21T04:20:45.352Z,101049.28
2022-09-21T04:23:11.811Z,101050.19
2022-09-21T04:25:38.250Z,101044.09
2022-09-21T04:28:04.734Z,101050.19
2022-09-21T04:30:34.323Z,101047.56
2022-09-21T04:33:05.025Z,101045.81
2022-09-21T04:35:31.583Z,101050.16
2022-09-21T04:37:58.017Z,101050.13
2022-09-21T04:40:24.579Z,101051.03
2022-09-21T04:42:55.091Z,101051.00
2022-09-21T04:45:22.815Z,101055.34
2022-09-21T04:47:49.638Z,101053.59
2022-09-21T04:50:16.394Z,101046.63
2022-09-21T04:52:42.869Z,101057.97
2022-09-21T04:55:09.428Z,101061.44
2022-09-21T04:57:36.197Z,101055.34
2022-09-21T05:00:05.492Z,101051.00
2022-09-21T05:02:31.993Z,101057.94
2022-09-21T05:05:00.510Z,101064.03
2022-09-21T05:08:03.373Z,101067.53
2022-09-21T05:10:30.461Z,101067.50
2022-09-21T05:13:02.990Z,101074.47
2022-09-21T05:15:29.536Z,101071.84
2022-09-21T05:17:56.028Z,101073.63
2022-09-21T05:20:24.526Z,101074.50
2022-09-21T05:22:51.021Z,101081.47
2022-09-21T05:25:17.635Z,101082.34
2022-09-21T05:27:44.051Z,101086.66
2022-09-21T05:30:11.264Z,101091.03
2022-09-21T05:32:48.814Z,101088.41
2022-09-21T05:35:54.145Z,101091.03
2022-09-21T05:38:20.912Z,101087.53
2022-09-21T05:40:48.197Z,101092.75
2022-09-21T05:43:16.565Z,101091.88
2022-09-21T05:45:50.227Z,101099.72
2022-09-21T05:48:21.024Z,101097.09
2022-09-21T05:51:04.091Z,101098.00
2022-09-21T05:53:48.487Z,101104.94
2022-09-21T05:56:39.620Z,101103.19
2022-09-21T05:59:42.987Z,101097.97
2022-09-21T06:02:23.448Z,101104.94
2022-09-21T06:04:55.870Z,101108.44
2022-09-21T06:07:24.936Z,101105.84
2022-09-21T06:09:53.807Z,101109.38
2022-09-21T06:12:20.338Z,101119.88
2022-09-21T06:14:46.775Z,101115.50
2022-09-21T06:17:15.310Z,101115.53
2022-09-21T06:19:41.740Z,101121.59
2022-09-21T06:22:08.200Z,101121.63
2022-09-21T06:24:34.814Z,101121.63
2022-09-21T06:27:01.319Z,101122.50
2022-09-21T06:29:27.817Z,101122.50
2022-09-21T06:32:20.992Z,101126.03
2022-09-21T06:34:47.481Z,101120.81
2022-09-21T06:37:13.934Z,101121.69
2022-09-21T06:39:40.347Z,101121.72
2022-09-21T06:42:29.966Z,101125.22
2022-09-21T06:44:56.368Z,101127.84
2022-09-21T06:47:22.905Z,101136.59
2022-09-21T06:49:49.315Z,101132.22
2022-09-21T06:52:15.734Z,101132.22
2022-09-21T06:54:42.391Z,101130.47
2022-09-21T06:57:08.914Z,101134.84
2022-09-21T06:59:39.063Z,101135.81
2022-09-21T07:02:06.135Z,101126.19
2022-09-21T07:04:32.660Z,101134.94
2022-09-21T07:07:01.819Z,101141.06
2022-09-21T07:10:14.577Z,101135.78
2022-09-21T07:12:41.681Z,101145.41
2022-09-21T07:15:10.176Z,101145.41
2022-09-21T07:17:38.766Z,101143.66
2022-09-21T07:20:07.759Z,101148.91
2022-09-21T07:22:35.096Z,101145.38
2022-09-21T07:25:01.624Z,101149.75
2022-09-21T07:27:29.582Z,101140.13
2022-09-21T07:29:56.120Z,101148.00
2022-09-21T07:32:22.657Z,101142.72
2022-09-21T07:34:49.067Z,101148.84
2022-09-21T07:37:16.160Z,101151.44
2022-09-21T07:39:42.701Z,101146.16
2022-09-21T07:42:09.213Z,101140.94
2022-09-21T07:44:42.959Z,101138.28
2022-09-21T07:47:09.416Z,101143.53
2022-09-21T07:49:36.291Z,101142.63
2022-09-21T07:52:04.988Z,101139.94
2022-09-21T07:54:34.853Z,101145.16
2022-09-21T07:57:19.981Z,101145.16
2022-09-21T07:59:47.500Z,101137.22
2022-09-21T08:02:14.070Z,101139.91
2022-09-21T08:04:40.611Z,101138.09
2022-09-21T08:07:07.046Z,101136.28
2022-09-21T08:09:33.530Z,101145.84
2022-09-21T08:12:01.420Z,101141.47
2022-09-21T08:14:29.342Z,101136.09
2022-09-21T08:16:55.808Z,101134.31
2022-09-21T08:19:25.813Z,101134.25
2022-09-21T08:21:57.137Z,101139.44
2022-09-21T08:24:26.490Z,101139.31
2022-09-21T08:26:53.033Z,101140.94
2022-09-21T08:29:19.710Z,101140.16
2022-09-21T08:31:46.880Z,101140.06
2022-09-21T08:34:14.133Z,101142.63
2022-09-21T08:36:47.197Z,101141.63
2022-09-21T08:39:15.324Z,101140.72
2022-09-21T08:42:02.300Z,101148.47
2022-09-21T08:44:40.485Z,101148.59
2022-09-21T08:47:14.923Z,101146.66
2022-09-21T08:49:47.484Z,101146.56
2022-09-21T08:52:17.905Z,101144.63
2022-09-21T08:54:54.688Z,101142.72
2022-09-21T08:57:26.524Z,101140.00
2022-09-21T08:59:53.039Z,101139.84
2022-09-21T09:02:38.877Z,101148.53
2022-09-21T09:05:18.383Z,101147.63
2022-09-21T09:08:02.263Z,101144.97
2022-09-21T09:10:43.006Z,101144.78
2022-09-21T09:13:40.066Z,101148.16
2022-09-21T09:16:25.543Z,101140.03
2022-09-21T09:19:00.264Z,101134.69
2022-09-21T09:21:39.285Z,101138.19
2022-09-21T09:24:15.032Z,101139.69
2022-09-21T09:26:53.000Z,101141.09
2022-09-21T09:29:31.819Z,101133.91
2022-09-21T09:32:00.970Z,101127.59
2022-09-21T09:34:31.673Z,101128.91
2022-09-21T09:37:19.713Z,101129.63
2022-09-21T09:39:54.154Z,101127.97
2022-09-21T09:42:35.942Z,101131.97
2022-09-21T09:45:28.503Z,101126.47
2022-09-21T09:48:09.919Z,101130.63
2022-09-21T09:50:39.651Z,101118.75
2022-09-21T09:53:24.466Z,101113.03
2022-09-21T09:56:14.848Z,101124.06
2022-09-21T09:58:54.826Z,101115.81
2022-09-21T10:01:43.525Z,101115.97
2022-09-21T10:04:17.598Z,101112.16
2022-09-21T10:06:46.833Z,101111.94
2022-09-21T10:09:31.613Z,101110.63
2022-09-21T10:12:02.343Z,101110.19
2022-09-21T10:14:35.015Z,101113.28
2022-09-21T10:17:15.971Z,101105.13
2022-09-21T10:19:42.780Z,101099.22
2022-09-21T10:22:16.804Z,101103.03
2022-09-21T10:24:51.388Z,101101.72
2022-09-21T10:27:24.632Z,101094.91
2022-09-21T10:29:53.259Z,101091.88
2022-09-21T10:32:26.439Z,101093.94
2022-09-21T10:35:05.967Z,101093.16
2022-09-21T10:38:12.186Z,101090.03
2022-09-21T10:40:39.805Z,101083.75
2022-09-21T10:43:20.489Z,101094.88
2022-09-21T10:45:54.911Z,101090.91
2022-09-21T10:48:23.530Z,101076.69
2022-09-21T10:50:51.732Z,101085.56
2022-09-21T10:53:28.462Z,101080.38
2022-09-21T10:56:18.645Z,101077.16
2022-09-21T10:59:12.623Z,101074.72
2022-09-21T11:01:47.165Z,101082.69
2022-09-21T11:04:41.601Z,101080.16
2022-09-21T11:07:15.212Z,101078.72
2022-09-21T11:09:57.164Z,101069.91
2022-09-21T11:12:53.782Z,101075.97
2022-09-21T11:15:31.010Z,101073.06
2022-09-21T11:18:11.416Z,101076.50
2022-09-21T11:21:09.284Z,101065.66
2022-09-21T11:24:03.115Z,101071.78
2022-09-21T11:26:54.605Z,101066.94
2022-09-21T11:29:27.640Z,101065.44
2022-09-21T11:32:11.661Z,101062.31
2022-09-21T11:34:50.256Z,101055.16
2022-09-21T11:37:38.915Z,101052.53
2022-09-21T11:40:24.547Z,101053.59
2022-09-21T11:43:24.140Z,101048.81
2022-09-21T11:46:08.421Z,101050.31
2022-09-21T11:48:54.055Z,101042.44
2022-09-21T11:51:58.759Z,101047.47
2022-09-21T11:55:28.428Z,101041.63
2022-09-21T11:58:03.084Z,101040.69
2022-09-21T12:04:46.221Z,101033.72
2022-09-21T12:07:33.561Z,101039.84
2022-09-21T12:10:06.257Z,101032.88
2022-09-21T12:13:02.730Z,101031.66
2022-09-21T12:15:56.093Z,101023.69
2022-09-21T12:18:45.501Z,101024.97
2022-09-21T12:21:24.024Z,101013.13
2022-09-21T12:24:02.676Z,101013.09
2022-09-21T12:26:38.973Z,101013.38
2022-09-21T12:29:21.609Z,101008.59
2022-09-21T12:31:55.000Z,101014.53
2022-09-21T12:34:27.114Z,101010.09
2022-09-21T12:37:02.543Z,101005.78
2022-09-21T12:40:36.542Z,101010.34
2022-09-21T12:43:14.018Z,100998.91
2022-09-21T12:45:53.602Z,100997.38
2022-09-21T12:48:31.773Z,100996.81
2022-09-21T12:55:45.424Z,100997.97
2022-09-21T13:01:37.644Z,100990.78
2022-09-21T13:04:22.278Z,100985.78
2022-09-21T13:06:58.509Z,100979.09
2022-09-21T13:09:26.942Z,100974.41
2022-09-21T13:12:06.894Z,100971.56
2022-09-21T13:14:36.251Z,100967.44
2022-09-21T13:17:05.874Z,100974.47
2022-09-21T13:19:34.602Z,100973.19
2022-09-21T13:22:22.731Z,100966.31
2022-09-21T13:25:15.031Z,100963.50
2022-09-21T13:28:19.627Z,100963.97
2022-09-21T13:31:40.323Z,100964.34
2022-09-21T13:34:22.004Z,100962.25
2022-09-21T13:37:14.315Z,100953.13
2022-09-21T13:39:43.748Z,100954.09
2022-09-21T13:42:34.730Z,100955.34
2022-09-21T13:45:13.566Z,100953.09
2022-09-21T13:47:48.026Z,100949.16
2022-09-21T13:50:38.585Z,100945.63
2022-09-21T13:53:09.846Z,100942.66
2022-09-21T13:55:49.074Z,100937.59
2022-09-21T13:58:26.997Z,100936.59
2022-09-21T14:01:09.877Z,100931.81
2022-09-21T14:03:58.346Z,100927.34
2022-09-21T14:06:30.891Z,100926.28
2022-09-21T14:09:01.222Z,100931.84
2022-09-21T14:11:59.180Z,100919.56
2022-09-21T14:15:26.867Z,100926.69
2022-09-21T14:18:16.284Z,100912.91
2022-09-21T14:21:17.627Z,100916.44
2022-09-21T14:24:06.177Z,100921.09
2022-09-21T14:26:41.737Z,100915.81
2022-09-21T14:29:17.590Z,100912.59
2022-09-21T14:31:44.393Z,100916.88
2022-09-21T14:34:24.614Z,100916.53
2022-09-21T14:36:55.942Z,100910.56
2022-09-21T14:39:35.033Z,100905.59
2022-09-21T14:42:12.399Z,100901.63
2022-09-21T14:44:42.470Z,100905.81
2022-09-21T14:47:28.581Z,100901.97
2022-09-21T14:50:37.551Z,100886.09
2022-09-21T14:53:29.161Z,100887.63
2022-09-21T14:56:29.952Z,100889.41
2022-09-21T14:59:30.636Z,100884.22
2022-09-21T15:02:17.572Z,100885.06
2022-09-21T15:05:00.868Z,100876.22
2022-09-21T15:08:05.804Z,100874.34
2022-09-21T15:10:56.828Z,100873.88
2022-09-21T15:13:52.425Z,100873.78
2022-09-21T15:16:39.114Z,100874.16
2022-09-21T15:19:20.536Z,100874.53
2022-09-21T15:22:23.305Z,100874.41
2022-09-21T15:24:55.641Z,100875.06
2022-09-21T15:27:33.046Z,100863.72
2022-09-21T15:30:02.026Z,100869.69
2022-09-21T15:32:36.836Z,100866.16
2022-09-21T15:35:18.532Z,100865.69
2022-09-21T15:37:45.855Z,100874.13
2022-09-21T15:40:22.759Z,100872.44
2022-09-21T15:43:19.432Z,100875.19
2022-09-21T15:45:51.644Z,100863.97
2022-09-21T15:48:20.583Z,100871.53
2022-09-21T15:50:52.879Z,100866.75
2022-09-21T15:53:24.677Z,100868.03
2022-09-21T15:55:52.538Z,100866.03
2022-09-21T15:58:40.420Z,100860.97
2022-09-21T16:01:14.222Z,100854.50
2022-09-21T16:03:41.982Z,100853.84
2022-09-21T16:06:27.898Z,100853.44
2022-09-21T16:09:37.389Z,100854.31
2022-09-21T16:12:26.380Z,100866.53
2022-09-21T16:14:53.882Z,100856.13
2022-09-21T16:17:28.876Z,100858.56
2022-09-21T16:19:55.329Z,100864.41
2022-09-21T16:22:31.056Z,100859.88
2022-09-21T16:25:00.755Z,100865.66
2022-09-21T16:27:31.874Z,100864.56
2022-09-21T16:30:01.124Z,100867.06
2022-09-21T16:32:29.836Z,100867.31
2022-09-21T16:35:29.304Z,100870.53
2022-09-21T16:37:58.635Z,100877.69
2022-09-21T16:40:26.872Z,100875.16
2022-09-21T16:42:54.215Z,100866.66
2022-09-21T16:45:31.600Z,100869.06
2022-09-21T16:47:59.413Z,100870.38
2022-09-21T16:50:26.311Z,100874.44
2022-09-21T16:52:52.774Z,100872.31
2022-09-21T16:55:21.161Z,100871.06
2022-09-21T16:57:49.115Z,100874.09
2022-09-21T17:00:21.965Z,100880.19
2022-09-21T17:02:49.450Z,100882.28
2022-09-21T17:05:18.000Z,100880.53
2022-09-21T17:07:55.592Z,100879.13
2022-09-21T17:10:37.125Z,100884.25
2022-09-21T17:13:09.017Z,100883.31
2022-09-21T17:15:36.805Z,100883.91
2022-09-21T17:18:04.002Z,100876.16
2022-09-21T17:20:34.744Z,100881.00
2022-09-21T17:23:03.025Z,100885.16
2022-09-21T17:25:30.939Z,100885.22
2022-09-21T17:27:58.264Z,100880.41
2022-09-21T17:30:26.616Z,100884.81
2022-09-21T17:32:54.069Z,100880.69
2022-09-21T17:35:38.028Z,100879.63
2022-09-21T17:38:05.609Z,100880.19
2022-09-21T17:40:32.698Z,100881.31
2022-09-21T17:43:30.277Z,100888.75
2022-09-21T17:46:21.725Z,100887.00
2022-09-21T17:48:48.514Z,100892.97
2022-09-21T17:51:35.142Z,100898.19
2022-09-21T17:54:01.817Z,100897.56
2022-09-21T17:56:51.330Z,100902.69
2022-09-21T17:59:33.144Z,100909.16
2022-09-21T18:02:00.969Z,100908.72
2022-09-21T18:04:34.823Z,100911.91
2022-09-21T18:07:01.543Z,100909.88
2022-09-21T18:09:28.275Z,100916.06
2022-09-21T18:11:58.125Z,100929.81
2022-09-21T18:14:41.849Z,100918.56
2022-09-21T18:17:52.335Z,100918.25
2022-09-21T18:20:41.666Z,100919.88
2022-09-21T18:23:37.374Z,100925.56
2022-09-21T18:32:39.594Z,100934.13
2022-09-21T18:35:31.317Z,100927.44
2022-09-21T18:38:34.616Z,100928.50
2022-09-21T18:41:05.341Z,100930.38
2022-09-21T18:43:47.405Z,100935.88
2022-09-21T18:46:18.777Z,100941.22
2022-09-21T18:49:11.559Z,100933.34
2022-09-21T18:51:51.772Z,100937.78
2022-09-21T18:54:21.365Z,100932.53
2022-09-21T18:56:48.715Z,100942.03
2022-09-21T18:59:16.395Z,100941.53
2022-09-21T19:01:44.797Z,100941.53
2022-09-21T19:04:14.213Z,100941.69
2022-09-21T19:07:10.426Z,100942.19
2022-09-21T19:10:07.585Z,100947.06
2022-09-21T19:12:40.126Z,100950.78
2022-09-21T19:15:55.589Z,100951.63
2022-09-21T19:18:45.165Z,100952.94
2022-09-21T19:21:40.225Z,100955.56
2022-09-21T19:24:13.279Z,100946.22
2022-09-21T19:27:03.315Z,100951.66
2022-09-21T19:29:58.476Z,100951.69
2022-09-21T19:32:36.385Z,100954.13
2022-09-21T19:35:16.815Z,100951.03
2022-09-21T19:37:43.776Z,100951.72
2022-09-21T19:40:11.031Z,100947.31
2022-09-21T19:43:11.403Z,100951.66
2022-09-21T19:45:47.300Z,100947.53
2022-09-21T19:48:16.025Z,100945.00
2022-09-21T19:50:54.445Z,100946.25
2022-09-21T19:53:41.068Z,100939.25
2022-09-21T19:56:32.853Z,100941.56
2022-09-21T19:59:18.584Z,100947.84
2022-09-21T20:01:53.546Z,100947.28
2022-09-21T20:04:40.554Z,100937.06
2022-09-21T20:07:29.999Z,100940.47
2022-09-21T20:10:22.875Z,100944.13
2022-09-21T20:13:05.351Z,100948.88
2022-09-21T20:15:41.652Z,100942.63
2022-09-21T20:18:28.567Z,100943.75
2022-09-21T20:20:55.236Z,100936.91
2022-09-21T20:23:21.895Z,100938.69
2022-09-21T20:25:54.576Z,100942.25
2022-09-21T20:28:21.958Z,100945.84
2022-09-21T20:30:50.055Z,100941.41
2022-09-21T20:33:22.759Z,100943.44
2022-09-21T20:35:50.533Z,100949.66
2022-09-21T20:38:18.395Z,100947.88
2022-09-21T20:40:45.535Z,100948.06
2022-09-21T20:43:14.143Z,100943.81
2022-09-21T20:45:41.070Z,100944.56
2022-09-21T20:48:17.545Z,100948.00
2022-09-21T20:50:46.676Z,100944.63
2022-09-21T20:53:13.486Z,100944.81
2022-09-21T20:55:41.158Z,100943.84
2022-09-21T20:58:11.452Z,100946.63
2022-09-21T21:00:38.120Z,100950.31
2022-09-21T21:03:05.222Z,100953.16
2022-09-21T21:05:32.032Z,100952.31
2022-09-21T21:07:58.442Z,100955.81
2022-09-21T21:10:25.407Z,100955.94
2022-09-21T21:12:51.854Z,100952.56
2022-09-21T21:15:19.498Z,100953.66
2022-09-21T21:17:47.753Z,100948.41
2022-09-21T21:20:16.201Z,100947.53
2022-09-21T21:22:43.874Z,100944.97
2022-09-21T21:25:10.981Z,100945.00
2022-09-21T21:27:37.758Z,100942.66
2022-09-21T21:30:04.999Z,100942.66
2022-09-21T21:32:32.492Z,100948.19
2022-09-21T21:34:59.247Z,100936.88
2022-09-21T21:37:30.007Z,100945.53
2022-09-21T21:39:56.995Z,100952.50
2022-09-21T21:42:24.850Z,100950.19
2022-09-21T21:44:51.521Z,100952.03
2022-09-21T21:47:38.679Z,100949.53
2022-09-21T21:50:05.395Z,100944.22
2022-09-21T21:52:31.839Z,100943.44
2022-09-21T21:54:58.294Z,100953.06
2022-09-21T21:57:24.748Z,100947.91
2022-09-21T21:59:51.197Z,100949.69
